Time;durP1;ratioP1;P1;durP2;ratioP2;P2;SDS_P1;SDS_P2;PMS_P1;PMS_P2;Temp;Humidity;BMP_temperature;BMP_pressure;BME280_temperature;BME280_humidity;BME280_pressure;Samples;Min_cycle;Max_cycle;Signal;HPM_P1;HPM_P2
2023/10/05 00:07:30;;;;;;;43.20;28.23;;;13.30;99.90;;;;;;25839824;23;20008;-50
2023/10/05 00:17:34;;;;;;;38.47;28.08;;;13.20;99.90;;;;;;25839348;23;20004;-59
2023/10/05 00:27:37;;;;;;;33.03;24.65;;;13.20;99.90;;;;;;25838444;23;20039;-59
2023/10/05 00:37:42;;;;;;;33.00;25.10;;;13.20;99.90;;;;;;25811981;23;20000;-48
2023/10/05 00:47:44;;;;;;;34.00;24.30;;;13.20;99.90;;;;;;25811195;23;20039;-60
2023/10/05 00:57:48;;;;;;;32.78;23.67;;;13.10;99.90;;;;;;25837460;23;20378;-52
2023/10/05 01:07:56;;;;;;;32.45;23.25;;;13.10;99.90;;;;;;25878937;23;20023;-51
2023/10/05 01:17:58;;;;;;;33.65;23.70;;;12.90;99.90;;;;;;25809629;23;20004;-52
2023/10/05 01:28:01;;;;;;;32.88;22.30;;;12.70;99.90;;;;;;25836436;23;20344;-59
2023/10/05 01:38:03;;;;;;;38.58;24.83;;;12.40;99.90;;;;;;25836313;23;20034;-51
2023/10/05 01:48:05;;;;;;;34.95;22.33;;;12.20;99.90;;;;;;25808908;23;20448;-59
2023/10/05 01:58:08;;;;;;;37.33;22.40;;;12.00;99.90;;;;;;25808379;23;20008;-50
2023/10/05 02:08:12;;;;;;;36.42;23.20;;;11.80;99.90;;;;;;25807926;23;20004;-52
2023/10/05 02:18:24;;;;;;;41.75;26.08;;;11.50;99.90;;;;;;25849984;23;20004;-58
2023/10/05 02:28:26;;;;;;;36.63;24.02;;;11.30;99.90;;;;;;25865374;23;20350;-59
2023/10/05 02:38:28;;;;;;;35.65;23.20;;;11.40;99.90;;;;;;25807570;23;20335;-60
2023/10/05 02:48:30;;;;;;;40.85;24.77;;;11.30;99.90;;;;;;25834346;23;20004;-60
2023/10/05 02:58:33;;;;;;;38.90;25.38;;;11.10;99.90;;;;;;25782207;23;20447;-59
2023/10/05 03:08:36;;;;;;;50.63;28.83;;;10.60;99.90;;;;;;25807175;23;20061;-52
2023/10/05 03:18:41;;;;;;;40.25;25.48;;;10.50;99.90;;;;;;25808880;23;20000;-50
2023/10/05 03:28:43;;;;;;;53.17;31.20;;;10.20;99.90;;;;;;25814017;23;20020;-58
2023/10/05 03:38:55;;;;;;;48.05;28.13;;;10.00;99.90;;;;;;25813416;23;20011;-58
2023/10/05 03:49:01;;;;;;;49.55;29.08;;;10.00;99.90;;;;;;25812717;23;20004;-48
2023/10/05 03:59:02;;;;;;;47.67;29.35;;;9.90;99.90;;;;;;25854140;23;20371;-52
2023/10/05 04:09:08;;;;;;;55.13;30.98;;;9.90;99.90;;;;;;25838886;23;20099;-53
2023/10/05 04:19:11;;;;;;;63.05;34.63;;;9.90;99.90;;;;;;25838419;23;20008;-48
2023/10/05 04:29:14;;;;;;;52.53;30.90;;;9.90;99.90;;;;;;25837564;23;20012;-50
2023/10/05 04:39:27;;;;;;;53.53;31.77;;;9.80;99.90;;;;;;25837384;23;20007;-58
2023/10/05 04:49:31;;;;;;;51.63;30.38;;;9.80;99.90;;;;;;25879379;23;20451;-58
2023/10/05 05:09:41;;;;;;;59.25;34.05;;;9.70;99.90;;;;;;25836201;23;20076;-58
2023/10/05 05:19:44;;;;;;;71.05;36.90;;;9.50;99.90;;;;;;25835770;23;20004;-49
2023/10/05 05:29:47;;;;;;;71.20;36.88;;;9.40;99.90;;;;;;25836161;23;20005;-58
2023/10/05 05:39:48;;;;;;;70.93;36.35;;;9.40;99.90;;;;;;25835223;23;20008;-54
2023/10/05 05:49:50;;;;;;;74.03;36.95;;;9.40;99.90;;;;;;25834989;23;20008;-58
2023/10/05 05:59:52;;;;;;;68.93;35.95;;;9.50;99.90;;;;;;25834326;23;20004;-48
2023/10/05 06:09:54;;;;;;;48.83;27.88;;;9.50;99.90;;;;;;25834444;23;20374;-51
2023/10/05 06:19:56;;;;;;;59.55;32.10;;;9.70;99.90;;;;;;25834412;23;20004;-49
2023/10/05 06:29:58;;;;;;;55.63;31.45;;;10.10;99.90;;;;;;25833090;23;20370;-50
2023/10/05 06:39:59;;;;;;;50.10;29.92;;;10.50;99.90;;;;;;25833789;23;20119;-50
2023/10/05 06:50:10;;;;;;;35.65;22.92;;;11.20;99.90;;;;;;25833549;23;20004;-59
2023/10/05 07:00:21;;;;;;;32.50;19.92;;;11.60;99.90;;;;;;25883707;23;20004;-60
2023/10/05 07:10:23;;;;;;;27.15;17.48;;;12.20;99.90;;;;;;25884905;23;20057;-52
2023/10/05 07:20:25;;;;;;;20.02;15.07;;;13.20;99.90;;;;;;25840837;23;20375;-60
2023/10/05 07:30:28;;;;;;;18.55;13.20;;;14.20;99.90;;;;;;25838631;23;20023;-60
2023/10/05 07:40:30;;;;;;;18.52;14.07;;;15.60;99.90;;;;;;25841606;23;20034;-47
2023/10/05 07:50:32;;;;;;;20.67;13.77;;;16.60;99.90;;;;;;25839786;23;20008;-61
2023/10/05 08:00:34;;;;;;;17.15;14.40;;;17.10;99.90;;;;;;25839087;23;20008;-52
2023/10/05 08:10:36;;;;;;;19.08;15.25;;;16.80;99.90;;;;;;25838621;23;20008;-51
2023/10/05 08:20:38;;;;;;;21.27;16.80;;;16.40;99.90;;;;;;25838754;23;20054;-62
2023/10/05 08:30:49;;;;;;;20.67;16.10;;;16.20;99.90;;;;;;25837845;23;20016;-51
2023/10/05 08:40:52;;;;;;;20.45;17.02;;;16.70;99.90;;;;;;25879775;23;20440;-48
2023/10/05 08:51:24;;;;;;;21.38;17.20;;;17.10;99.90;;;;;;25836618;23;20054;-54
2023/10/05 09:01:31;;;;;;;18.85;15.73;;;17.50;99.90;;;;;;25834513;23;20008;-61
2023/10/05 09:11:33;;;;;;;21.70;17.38;;;18.80;99.90;;;;;;25878489;23;20004;-62
2023/10/05 09:21:50;;;;;;;22.08;18.25;;;18.30;99.90;;;;;;25835756;23;20004;-61
2023/10/05 09:31:53;;;;;;;22.85;17.80;;;17.80;99.90;;;;;;25856456;23;20008;-53
2023/10/05 09:41:57;;;;;;;24.38;20.38;;;17.30;99.90;;;;;;25835482;23;20031;-61
2023/10/05 09:52:00;;;;;;;23.55;20.00;;;16.90;99.90;;;;;;25834692;23;20011;-60
2023/10/05 10:02:03;;;;;;;22.42;18.30;;;16.70;99.90;;;;;;25834735;23;20073;-61
2023/10/05 10:12:10;;;;;;;22.90;18.98;;;17.00;99.90;;;;;;25806839;23;20000;-51
2023/10/05 10:22:12;;;;;;;19.95;16.67;;;17.20;99.90;;;;;;25875871;23;20455;-54
2023/10/05 10:32:18;;;;;;;18.77;15.43;;;17.30;99.90;;;;;;25833223;23;20019;-61
2023/10/05 10:42:20;;;;;;;16.75;13.48;;;18.60;99.90;;;;;;25877014;23;20434;-62
2023/10/05 10:52:22;;;;;;;15.45;13.05;;;19.20;99.90;;;;;;25833330;23;20070;-61
2023/10/05 11:02:24;;;;;;;12.85;9.38;;;19.10;99.90;;;;;;25833224;23;20004;-49
2023/10/05 11:12:26;;;;;;;12.88;9.25;;;18.40;99.90;;;;;;25833014;23;20008;-61
2023/10/05 11:22:31;;;;;;;10.95;8.63;;;18.00;99.90;;;;;;25832812;23;20008;-50
2023/10/05 11:32:33;;;;;;;15.23;9.50;;;18.00;99.90;;;;;;25832392;23;20376;-62
2023/10/05 11:42:41;;;;;;;11.82;9.93;;;18.10;99.90;;;;;;25836853;23;20008;-53
2023/10/05 11:52:43;;;;;;;13.73;10.60;;;18.10;99.90;;;;;;25882065;23;20000;-50
2023/10/05 12:02:45;;;;;;;13.88;10.07;;;17.70;99.90;;;;;;25839134;23;20004;-52
2023/10/05 12:12:50;;;;;;;16.88;11.35;;;17.60;99.90;;;;;;25836695;23;20004;-53
2023/10/05 12:22:52;;;;;;;15.73;12.15;;;17.10;99.90;;;;;;25838482;23;20011;-51
2023/10/05 12:32:55;;;;;;;15.27;11.60;;;17.10;99.90;;;;;;25838188;23;20013;-53
2023/10/05 12:42:56;;;;;;;19.30;12.65;;;17.20;99.90;;;;;;25838969;23;20004;-50
2023/10/05 12:52:58;;;;;;;18.35;14.07;;;17.40;99.90;;;;;;25839513;23;20004;-52
2023/10/05 13:03:04;;;;;;;20.80;12.93;;;17.60;99.90;;;;;;25839296;23;20004;-51
2023/10/05 13:13:20;;;;;;;17.65;13.70;;;17.50;99.90;;;;;;25880684;23;20435;-53
2023/10/05 13:23:22;;;;;;;18.25;12.77;;;17.60;99.90;;;;;;25880379;23;20600;-53
2023/10/05 13:33:28;;;;;;;20.55;13.63;;;17.10;99.90;;;;;;25837658;23;20012;-50
2023/10/05 13:43:31;;;;;;;17.75;13.00;;;17.60;99.90;;;;;;25879134;23;20008;-51
2023/10/05 13:53:34;;;;;;;16.35;13.93;;;17.70;99.90;;;;;;25836985;23;20331;-51
2023/10/05 14:03:36;;;;;;;16.25;12.57;;;17.70;99.90;;;;;;25836365;23;20012;-61
2023/10/05 14:13:38;;;;;;;16.98;13.57;;;17.50;99.90;;;;;;25836430;23;20000;-52
2023/10/05 14:23:40;;;;;;;17.33;12.55;;;17.20;99.90;;;;;;25836343;23;20031;-52
2023/10/05 14:33:43;;;;;;;18.35;14.00;;;16.80;99.90;;;;;;25835299;23;20019;-49
2023/10/05 14:43:45;;;;;;;16.13;12.88;;;16.50;99.90;;;;;;25836029;23;20062;-50
2023/10/05 14:53:49;;;;;;;17.92;14.15;;;16.10;99.90;;;;;;25834982;23;20093;-51
2023/10/05 15:03:50;;;;;;;19.75;14.23;;;15.80;99.90;;;;;;25834259;23;20312;-50
2023/10/05 15:13:55;;;;;;;20.27;14.05;;;15.50;99.90;;;;;;25837318;23;20031;-50
2023/10/05 15:23:58;;;;;;;21.35;14.95;;;15.20;99.90;;;;;;25842425;23;20008;-53
2023/10/05 15:34:07;;;;;;;20.83;14.30;;;14.90;99.90;;;;;;25853947;23;20008;-60
2023/10/05 15:44:09;;;;;;;25.20;16.88;;;14.30;99.90;;;;;;25884159;23;20062;-51
2023/10/05 15:54:21;;;;;;;24.40;16.30;;;13.80;99.90;;;;;;25883690;23;20423;-50
2023/10/05 16:04:27;;;;;;;24.67;17.80;;;13.30;99.90;;;;;;25840900;23;20011;-51
2023/10/05 16:14:30;;;;;;;28.98;18.88;;;13.10;99.90;;;;;;25840671;23;20031;-58
2023/10/05 16:24:32;;;;;;;27.15;18.58;;;12.70;99.90;;;;;;25840926;23;20084;-59
2023/10/05 16:34:38;;;;;;;26.67;17.52;;;12.40;99.90;;;;;;25840945;23;20008;-51
2023/10/05 16:44:41;;;;;;;30.70;20.88;;;12.10;99.90;;;;;;25882638;23;20489;-59
2023/10/05 16:54:43;;;;;;;26.23;18.15;;;11.90;99.90;;;;;;25839956;23;20026;-49
2023/10/05 17:04:48;;;;;;;32.45;20.20;;;11.70;99.90;;;;;;25839269;23;20008;-59
2023/10/05 17:14:50;;;;;;;36.08;21.15;;;11.70;99.90;;;;;;25838557;23;20004;-59
2023/10/05 17:24:56;;;;;;;29.33;19.45;;;11.60;99.90;;;;;;25838569;23;20000;-50
2023/10/05 17:34:58;;;;;;;31.73;20.88;;;11.80;99.90;;;;;;25845678;23;20008;-59
2023/10/05 17:45:00;;;;;;;30.48;20.27;;;11.80;99.90;;;;;;25837787;23;20024;-53
2023/10/05 17:55:06;;;;;;;30.17;20.70;;;11.70;99.90;;;;;;25837524;23;20050;-52
2023/10/05 18:05:12;;;;;;;32.10;20.48;;;11.70;99.90;;;;;;25852054;23;20380;-61
2023/10/05 18:15:16;;;;;;;30.98;20.65;;;11.80;99.90;;;;;;25836695;23;20498;-52
2023/10/05 18:25:20;;;;;;;30.45;20.13;;;11.80;99.90;;;;;;25836446;23;20432;-52
2023/10/05 18:35:22;;;;;;;36.60;23.08;;;11.80;99.90;;;;;;25836469;23;20340;-53
2023/10/05 18:45:24;;;;;;;36.97;24.58;;;12.00;99.90;;;;;;25836149;23;20005;-59
2023/10/05 18:55:26;;;;;;;29.85;18.90;;;12.10;99.90;;;;;;25844237;23;20691;-53
2023/10/05 19:05:28;;;;;;;28.15;18.70;;;12.10;99.90;;;;;;25816268;23;20062;-53
2023/10/05 19:15:30;;;;;;;27.20;18.73;;;12.20;99.90;;;;;;25843904;23;20331;-59
2023/10/05 19:25:32;;;;;;;32.92;21.45;;;12.20;99.90;;;;;;25816703;23;20004;-59
2023/10/05 19:35:34;;;;;;;29.30;19.20;;;12.10;99.90;;;;;;25841038;23;20439;-53
2023/10/05 19:45:36;;;;;;;29.63;20.27;;;12.20;99.90;;;;;;25842399;23;20008;-55
2023/10/05 19:55:38;;;;;;;27.25;19.58;;;12.00;99.90;;;;;;25841327;23;20054;-52
2023/10/05 20:05:40;;;;;;;28.65;18.98;;;11.90;99.90;;;;;;25840701;23;20015;-53
2023/10/05 20:15:43;;;;;;;32.92;20.92;;;11.60;99.90;;;;;;25841333;23;20448;-59
2023/10/05 20:25:45;;;;;;;37.83;23.45;;;11.40;99.90;;;;;;25813333;23;20066;-60
2023/10/05 20:35:57;;;;;;;35.17;21.60;;;11.30;99.90;;;;;;25839697;23;20066;-53
2023/10/05 20:46:03;;;;;;;37.33;23.13;;;11.10;99.90;;;;;;25880725;23;20004;-49
2023/10/05 20:56:12;;;;;;;45.47;27.05;;;10.90;99.90;;;;;;25880625;23;20031;-53
2023/10/05 21:06:14;;;;;;;47.30;28.55;;;10.60;99.90;;;;;;25838283;23;20004;-58
2023/10/05 21:16:16;;;;;;;53.05;30.08;;;10.40;99.90;;;;;;25837800;23;20008;-50
2023/10/05 21:26:17;;;;;;;62.10;34.17;;;10.40;99.90;;;;;;25837164;23;20377;-59
2023/10/05 21:36:19;;;;;;;74.95;36.60;;;10.40;99.90;;;;;;25836633;23;20012;-58
2023/10/05 21:46:21;;;;;;;74.95;36.63;;;10.40;99.90;;;;;;25835914;23;20436;-50
2023/10/05 21:56:23;;;;;;;84.35;42.17;;;10.30;99.90;;;;;;25808079;23;20062;-52
2023/10/05 22:06:24;;;;;;;74.38;37.90;;;10.50;99.90;;;;;;25839023;23;20003;-49
2023/10/05 22:16:28;;;;;;;86.13;42.00;;;10.40;99.90;;;;;;25836855;23;20000;-50
2023/10/05 22:26:31;;;;;;;76.85;39.05;;;10.30;99.90;;;;;;25836784;23;20000;-52
2023/10/05 22:36:34;;;;;;;94.85;42.80;;;10.20;99.90;;;;;;25836560;23;20097;-51
2023/10/05 22:46:37;;;;;;;88.68;42.42;;;10.20;99.90;;;;;;25810005;23;20004;-59
2023/10/05 22:56:39;;;;;;;64.07;35.63;;;10.20;99.90;;;;;;25836371;23;20322;-59
2023/10/05 23:06:41;;;;;;;84.03;41.20;;;10.10;99.90;;;;;;25836144;23;20008;-52
2023/10/05 23:16:46;;;;;;;70.10;36.88;;;10.10;99.90;;;;;;25836139;23;20451;-49
2023/10/05 23:26:47;;;;;;;95.47;43.72;;;10.10;99.90;;;;;;25837062;23;20008;-52
2023/10/05 23:36:49;;;;;;;89.35;43.20;;;10.30;99.90;;;;;;25839449;23;20379;-50
2023/10/05 23:47:00;;;;;;;102.80;44.53;;;10.40;99.90;;;;;;25843359;23;20000;-50
2023/10/05 23:57:10;;;;;;;103.30;46.53;;;10.40;99.90;;;;;;25884688;23;20027;-52
